San Julian, Argentina
Current Conditions -  °F | °C
As of 7:00 PM on Monday 20 Oct 2014 (Local Time) from SAWG Reporting Station
Scattered Clouds Scattered Clouds  
Wind Chill: 57°   Ceiling: Unl
Heat Index: 57°   Visibility: 6mi
Dew Point: 41°   Wind: 7mph
Humidity: 55%   Direction: 360°N
Pressure: 29.26"   Gusts: NA
Location:  49.31°S, 67.71°W
Report Text: SAWG 202200Z 36006KT 9999 SCT035 SCT10014/05 Q0991
Loading
Personal Weather Stations






























Interactive Weather Map
Tropical Storm Tracking
New forecast layout! Learn more

10-Day Weather Forecast

Advertisements
Track Severe Weather on mobile